Decoded Metar for LFPB (PARIS LE BOURGET in FRANCE) (IATA:LBG) | Meteo·Mobile Aviation Weather
aviador You're here:

LFPB Decoded Metar

PARIS LE BOURGET in FRANCE
Report Time2020-02-23 09:30:00
UTC Time2020-02-23 09:41:56
Flight Rules mvfr MVFR
Wind200° at 17 kt
W.Decomp.*RWY 21: 16.8 kt HW 2.7 kt LCW
RWY 25: 11.2 kt HW 12.8 kt LCW
RWY 27: 6.1 kt HW 15.9 kt LCW
Visibility9999 m
Phenomena:N/A
Clouds:Broken 008 Hf
Broken 018 Hf
Overcast 023 Hf
Expected CloudBase > 1,600 ft AGL from Temp-Dew spread
Ceiling1,800 ft
Temp12°C (ISA -3)
Dew Point08°C (77% RH)
AAT5.4°C
QNH1023 hPa
Density Alt-285 ft
Elevation213 ft
Report Wrong Elevation
Raw Report
METAR LFPB 230930Z AUTO 20017KT 9999 BKN018 OVC023 12/08 Q1023 TEMPO
BKN008 BECMG 23015G25KT=

Extra information for LFPB:More info

Metar Taf Metar & Taf Last 4 Metars F.Rules Stats Wind Profile Meteogram Temp Stats Airport Information Weather charts Add Link Nearby VenuesMetar ALERT Operation Metar Decoded Social comments